sensor_id;sensor_type;location;lat;lon;timestamp;P1;durP1;ratioP1;P2;durP2;ratioP2
37477;SDS011;23334;54.316;10.182;2023-02-28T00:00:21;6.60;;;4.50;;
37477;SDS011;23334;54.316;10.182;2023-02-28T00:02:47;5.77;;;4.80;;
37477;SDS011;23334;54.316;10.182;2023-02-28T00:05:14;5.00;;;4.50;;
37477;SDS011;23334;54.316;10.182;2023-02-28T00:07:42;5.47;;;4.93;;
37477;SDS011;23334;54.316;10.182;2023-02-28T00:10:08;5.60;;;4.70;;
37477;SDS011;23334;54.316;10.182;2023-02-28T00:12:37;6.00;;;4.87;;
37477;SDS011;23334;54.316;10.182;2023-02-28T00:15:09;5.43;;;4.73;;
37477;SDS011;23334;54.316;10.182;2023-02-28T00:17:36;7.43;;;5.20;;
37477;SDS011;23334;54.316;10.182;2023-02-28T00:20:02;5.97;;;5.00;;
37477;SDS011;23334;54.316;10.182;2023-02-28T00:22:33;7.80;;;5.00;;
37477;SDS011;23334;54.316;10.182;2023-02-28T00:24:59;5.47;;;4.90;;
37477;SDS011;23334;54.316;10.182;2023-02-28T00:27:24;4.80;;;4.40;;
37477;SDS011;23334;54.316;10.182;2023-02-28T00:29:50;4.87;;;4.47;;
37477;SDS011;23334;54.316;10.182;2023-02-28T00:32:15;6.10;;;4.53;;
37477;SDS011;23334;54.316;10.182;2023-02-28T00:34:41;7.80;;;4.90;;
37477;SDS011;23334;54.316;10.182;2023-02-28T00:37:07;6.57;;;4.43;;
37477;SDS011;23334;54.316;10.182;2023-02-28T00:39:34;12.27;;;4.30;;
37477;SDS011;23334;54.316;10.182;2023-02-28T00:42:01;7.00;;;4.13;;
37477;SDS011;23334;54.316;10.182;2023-02-28T00:44:27;4.60;;;4.20;;
37477;SDS011;23334;54.316;10.182;2023-02-28T00:46:53;5.97;;;4.20;;
37477;SDS011;23334;54.316;10.182;2023-02-28T00:49:19;10.77;;;4.60;;
37477;SDS011;23334;54.316;10.182;2023-02-28T00:51:45;5.17;;;4.67;;
37477;SDS011;23334;54.316;10.182;2023-02-28T00:54:11;8.33;;;5.37;;
37477;SDS011;23334;54.316;10.182;2023-02-28T00:56:37;4.50;;;4.00;;
37477;SDS011;23334;54.316;10.182;2023-02-28T00:59:03;5.93;;;4.70;;
37477;SDS011;23334;54.316;10.182;2023-02-28T01:01:29;5.23;;;4.73;;
37477;SDS011;23334;54.316;10.182;2023-02-28T01:03:54;7.50;;;5.13;;
37477;SDS011;23334;54.316;10.182;2023-02-28T01:06:20;5.03;;;4.30;;
37477;SDS011;23334;54.316;10.182;2023-02-28T01:08:45;5.73;;;4.80;;
37477;SDS011;23334;54.316;10.182;2023-02-28T01:11:11;6.33;;;4.20;;
37477;SDS011;23334;54.316;10.182;2023-02-28T01:13:41;5.47;;;4.63;;
37477;SDS011;23334;54.316;10.182;2023-02-28T01:16:07;8.47;;;4.93;;
37477;SDS011;23334;54.316;10.182;2023-02-28T01:18:33;8.90;;;4.97;;
37477;SDS011;23334;54.316;10.182;2023-02-28T01:21:02;5.57;;;4.40;;
37477;SDS011;23334;54.316;10.182;2023-02-28T01:23:35;6.67;;;4.77;;
37477;SDS011;23334;54.316;10.182;2023-02-28T01:26:05;6.80;;;3.90;;
37477;SDS011;23334;54.316;10.182;2023-02-28T01:28:31;11.00;;;4.40;;
37477;SDS011;23334;54.316;10.182;2023-02-28T01:30:57;5.40;;;3.93;;
37477;SDS011;23334;54.316;10.182;2023-02-28T01:33:22;6.90;;;3.43;;
37477;SDS011;23334;54.316;10.182;2023-02-28T01:35:48;5.20;;;4.10;;
37477;SDS011;23334;54.316;10.182;2023-02-28T01:38:14;4.60;;;3.87;;
37477;SDS011;23334;54.316;10.182;2023-02-28T01:40:40;10.43;;;3.50;;
37477;SDS011;23334;54.316;10.182;2023-02-28T01:45:54;3.80;;;3.50;;
37477;SDS011;23334;54.316;10.182;2023-02-28T01:48:21;3.17;;;2.97;;
37477;SDS011;23334;54.316;10.182;2023-02-28T01:50:51;3.37;;;3.17;;
37477;SDS011;23334;54.316;10.182;2023-02-28T01:53:21;4.27;;;3.87;;
37477;SDS011;23334;54.316;10.182;2023-02-28T01:55:55;5.23;;;3.10;;
37477;SDS011;23334;54.316;10.182;2023-02-28T01:58:21;4.23;;;3.00;;
37477;SDS011;23334;54.316;10.182;2023-02-28T02:00:47;3.53;;;3.03;;
37477;SDS011;23334;54.316;10.182;2023-02-28T02:03:13;5.13;;;3.80;;
37477;SDS011;23334;54.316;10.182;2023-02-28T02:05:43;3.73;;;3.40;;
37477;SDS011;23334;54.316;10.182;2023-02-28T02:08:12;11.63;;;3.03;;
37477;SDS011;23334;54.316;10.182;2023-02-28T02:10:43;5.07;;;3.20;;
37477;SDS011;23334;54.316;10.182;2023-02-28T02:13:28;4.97;;;3.50;;
37477;SDS011;23334;54.316;10.182;2023-02-28T02:16:21;3.37;;;3.13;;
37477;SDS011;23334;54.316;10.182;2023-02-28T02:18:57;5.00;;;3.80;;
37477;SDS011;23334;54.316;10.182;2023-02-28T02:25:18;7.30;;;3.83;;
37477;SDS011;23334;54.316;10.182;2023-02-28T02:30:43;5.20;;;4.17;;
37477;SDS011;23334;54.316;10.182;2023-02-28T02:36:05;6.60;;;4.47;;
37477;SDS011;23334;54.316;10.182;2023-02-28T02:38:48;6.53;;;4.00;;
37477;SDS011;23334;54.316;10.182;2023-02-28T02:44:26;5.63;;;3.70;;
37477;SDS011;23334;54.316;10.182;2023-02-28T02:46:55;4.47;;;4.07;;
37477;SDS011;23334;54.316;10.182;2023-02-28T02:49:30;6.40;;;2.90;;
37477;SDS011;23334;54.316;10.182;2023-02-28T02:52:00;4.53;;;3.40;;
37477;SDS011;23334;54.316;10.182;2023-02-28T02:54:36;6.07;;;3.93;;
37477;SDS011;23334;54.316;10.182;2023-02-28T02:57:07;6.03;;;3.90;;
37477;SDS011;23334;54.316;10.182;2023-02-28T02:59:38;5.30;;;4.00;;
37477;SDS011;23334;54.316;10.182;2023-02-28T03:02:06;4.27;;;3.60;;
37477;SDS011;23334;54.316;10.182;2023-02-28T03:04:43;6.80;;;4.23;;
37477;SDS011;23334;54.316;10.182;2023-02-28T03:07:11;4.17;;;3.13;;
37477;SDS011;23334;54.316;10.182;2023-02-28T03:09:37;3.50;;;3.20;;
37477;SDS011;23334;54.316;10.182;2023-02-28T03:12:03;4.20;;;3.30;;
37477;SDS011;23334;54.316;10.182;2023-02-28T03:22:36;5.77;;;3.87;;
37477;SDS011;23334;54.316;10.182;2023-02-28T03:25:21;5.17;;;3.73;;
37477;SDS011;23334;54.316;10.182;2023-02-28T03:30:50;6.40;;;3.50;;
37477;SDS011;23334;54.316;10.182;2023-02-28T03:33:26;7.57;;;3.30;;
37477;SDS011;23334;54.316;10.182;2023-02-28T03:36:20;7.53;;;4.03;;
37477;SDS011;23334;54.316;10.182;2023-02-28T03:38:58;5.07;;;3.50;;
37477;SDS011;23334;54.316;10.182;2023-02-28T03:41:35;10.20;;;3.70;;
37477;SDS011;23334;54.316;10.182;2023-02-28T03:44:05;7.47;;;4.10;;
37477;SDS011;23334;54.316;10.182;2023-02-28T03:46:36;7.47;;;3.93;;
37477;SDS011;23334;54.316;10.182;2023-02-28T03:49:17;4.17;;;3.57;;
37477;SDS011;23334;54.316;10.182;2023-02-28T03:51:47;6.20;;;4.53;;
37477;SDS011;23334;54.316;10.182;2023-02-28T03:54:16;7.80;;;3.83;;
37477;SDS011;23334;54.316;10.182;2023-02-28T03:56:50;6.50;;;3.60;;
37477;SDS011;23334;54.316;10.182;2023-02-28T03:59:21;4.93;;;4.00;;
37477;SDS011;23334;54.316;10.182;2023-02-28T04:01:50;4.20;;;3.67;;
37477;SDS011;23334;54.316;10.182;2023-02-28T04:04:16;5.80;;;3.70;;
37477;SDS011;23334;54.316;10.182;2023-02-28T04:06:43;5.47;;;3.70;;
37477;SDS011;23334;54.316;10.182;2023-02-28T04:09:10;7.07;;;4.10;;
37477;SDS011;23334;54.316;10.182;2023-02-28T04:14:03;4.47;;;4.07;;
37477;SDS011;23334;54.316;10.182;2023-02-28T04:16:30;5.30;;;3.97;;
37477;SDS011;23334;54.316;10.182;2023-02-28T04:18:57;7.63;;;4.70;;
37477;SDS011;23334;54.316;10.182;2023-02-28T04:21:46;5.70;;;4.20;;
37477;SDS011;23334;54.316;10.182;2023-02-28T04:24:14;6.97;;;4.57;;
37477;SDS011;23334;54.316;10.182;2023-02-28T04:26:43;9.07;;;4.83;;
37477;SDS011;23334;54.316;10.182;2023-02-28T04:29:11;7.40;;;4.60;;
37477;SDS011;23334;54.316;10.182;2023-02-28T04:31:38;4.33;;;3.93;;
37477;SDS011;23334;54.316;10.182;2023-02-28T04:34:04;5.23;;;4.73;;
37477;SDS011;23334;54.316;10.182;2023-02-28T04:36:30;8.93;;;4.83;;
37477;SDS011;23334;54.316;10.182;2023-02-28T04:38:56;5.47;;;4.73;;
37477;SDS011;23334;54.316;10.182;2023-02-28T04:41:22;13.53;;;6.43;;
37477;SDS011;23334;54.316;10.182;2023-02-28T04:43:48;4.87;;;4.07;;
37477;SDS011;23334;54.316;10.182;2023-02-28T04:46:13;5.33;;;4.83;;
37477;SDS011;23334;54.316;10.182;2023-02-28T04:48:39;6.53;;;3.97;;
37477;SDS011;23334;54.316;10.182;2023-02-28T04:51:06;6.10;;;4.50;;
37477;SDS011;23334;54.316;10.182;2023-02-28T04:53:34;4.60;;;4.20;;
37477;SDS011;23334;54.316;10.182;2023-02-28T04:56:00;7.87;;;4.97;;
37477;SDS011;23334;54.316;10.182;2023-02-28T04:58:26;5.37;;;4.80;;
37477;SDS011;23334;54.316;10.182;2023-02-28T05:00:53;6.47;;;4.57;;
37477;SDS011;23334;54.316;10.182;2023-02-28T05:03:19;7.57;;;4.40;;
37477;SDS011;23334;54.316;10.182;2023-02-28T05:05:47;5.30;;;4.27;;
37477;SDS011;23334;54.316;10.182;2023-02-28T05:08:12;4.63;;;4.23;;
37477;SDS011;23334;54.316;10.182;2023-02-28T05:10:38;5.70;;;4.70;;
37477;SDS011;23334;54.316;10.182;2023-02-28T05:13:03;6.93;;;5.37;;
37477;SDS011;23334;54.316;10.182;2023-02-28T05:15:29;9.13;;;4.83;;
37477;SDS011;23334;54.316;10.182;2023-02-28T05:17:54;6.53;;;5.33;;
37477;SDS011;23334;54.316;10.182;2023-02-28T05:20:20;8.03;;;4.80;;
37477;SDS011;23334;54.316;10.182;2023-02-28T05:22:46;5.97;;;4.90;;
37477;SDS011;23334;54.316;10.182;2023-02-28T05:25:12;6.63;;;5.30;;
37477;SDS011;23334;54.316;10.182;2023-02-28T05:27:41;7.87;;;5.10;;
37477;SDS011;23334;54.316;10.182;2023-02-28T05:30:07;9.60;;;4.90;;
37477;SDS011;23334;54.316;10.182;2023-02-28T05:32:35;10.33;;;5.10;;
37477;SDS011;23334;54.316;10.182;2023-02-28T05:35:07;5.83;;;4.87;;
37477;SDS011;23334;54.316;10.182;2023-02-28T05:37:34;5.17;;;4.67;;
37477;SDS011;23334;54.316;10.182;2023-02-28T05:39:59;6.30;;;5.30;;
37477;SDS011;23334;54.316;10.182;2023-02-28T05:42:25;6.97;;;4.37;;
37477;SDS011;23334;54.316;10.182;2023-02-28T05:44:50;7.50;;;5.43;;
37477;SDS011;23334;54.316;10.182;2023-02-28T05:47:16;7.20;;;4.57;;
37477;SDS011;23334;54.316;10.182;2023-02-28T05:49:42;5.77;;;4.70;;
37477;SDS011;23334;54.316;10.182;2023-02-28T05:52:07;7.07;;;5.00;;
37477;SDS011;23334;54.316;10.182;2023-02-28T05:54:33;6.07;;;5.13;;
37477;SDS011;23334;54.316;10.182;2023-02-28T05:56:59;8.13;;;4.97;;
37477;SDS011;23334;54.316;10.182;2023-02-28T05:59:24;7.57;;;5.63;;
37477;SDS011;23334;54.316;10.182;2023-02-28T06:01:50;5.33;;;4.63;;
37477;SDS011;23334;54.316;10.182;2023-02-28T06:04:17;7.90;;;5.57;;
37477;SDS011;23334;54.316;10.182;2023-02-28T06:06:47;10.10;;;5.17;;
37477;SDS011;23334;54.316;10.182;2023-02-28T06:09:13;7.30;;;5.40;;
37477;SDS011;23334;54.316;10.182;2023-02-28T06:11:39;9.23;;;5.63;;
37477;SDS011;23334;54.316;10.182;2023-02-28T06:14:05;9.63;;;5.47;;
37477;SDS011;23334;54.316;10.182;2023-02-28T06:16:32;8.17;;;5.87;;
37477;SDS011;23334;54.316;10.182;2023-02-28T06:18:59;10.97;;;5.63;;
37477;SDS011;23334;54.316;10.182;2023-02-28T06:21:26;12.13;;;4.97;;
37477;SDS011;23334;54.316;10.182;2023-02-28T06:23:52;6.50;;;5.53;;
37477;SDS011;23334;54.316;10.182;2023-02-28T06:26:18;10.23;;;5.73;;
37477;SDS011;23334;54.316;10.182;2023-02-28T06:28:44;8.67;;;5.63;;
37477;SDS011;23334;54.316;10.182;2023-02-28T06:31:11;7.60;;;6.10;;
37477;SDS011;23334;54.316;10.182;2023-02-28T06:33:38;8.87;;;6.27;;
37477;SDS011;23334;54.316;10.182;2023-02-28T06:36:05;11.57;;;7.80;;
37477;SDS011;23334;54.316;10.182;2023-02-28T06:38:32;11.30;;;8.00;;
37477;SDS011;23334;54.316;10.182;2023-02-28T06:40:58;14.30;;;9.23;;
37477;SDS011;23334;54.316;10.182;2023-02-28T06:43:26;17.83;;;10.37;;
37477;SDS011;23334;54.316;10.182;2023-02-28T06:45:54;18.37;;;10.60;;
37477;SDS011;23334;54.316;10.182;2023-02-28T06:48:21;12.30;;;8.40;;
37477;SDS011;23334;54.316;10.182;2023-02-28T06:50:46;12.43;;;7.30;;
37477;SDS011;23334;54.316;10.182;2023-02-28T06:53:12;10.40;;;6.80;;
37477;SDS011;23334;54.316;10.182;2023-02-28T06:55:37;15.53;;;6.50;;
37477;SDS011;23334;54.316;10.182;2023-02-28T06:58:04;7.50;;;5.80;;
37477;SDS011;23334;54.316;10.182;2023-02-28T07:00:39;13.30;;;5.77;;
37477;SDS011;23334;54.316;10.182;2023-02-28T07:03:06;11.80;;;6.07;;
37477;SDS011;23334;54.316;10.182;2023-02-28T07:05:34;7.10;;;5.20;;
37477;SDS011;23334;54.316;10.182;2023-02-28T07:08:00;8.40;;;6.03;;
37477;SDS011;23334;54.316;10.182;2023-02-28T07:10:28;7.97;;;5.90;;
37477;SDS011;23334;54.316;10.182;2023-02-28T07:12:53;11.70;;;6.63;;
37477;SDS011;23334;54.316;10.182;2023-02-28T07:15:19;7.93;;;6.53;;
37477;SDS011;23334;54.316;10.182;2023-02-28T07:17:45;12.90;;;7.23;;
37477;SDS011;23334;54.316;10.182;2023-02-28T07:20:11;15.97;;;6.20;;
37477;SDS011;23334;54.316;10.182;2023-02-28T07:22:37;15.27;;;7.80;;
37477;SDS011;23334;54.316;10.182;2023-02-28T07:25:10;9.27;;;6.40;;
37477;SDS011;23334;54.316;10.182;2023-02-28T07:27:35;9.60;;;6.80;;
37477;SDS011;23334;54.316;10.182;2023-02-28T07:30:01;9.80;;;6.60;;
37477;SDS011;23334;54.316;10.182;2023-02-28T07:32:28;13.63;;;6.50;;
37477;SDS011;23334;54.316;10.182;2023-02-28T07:34:53;8.30;;;6.50;;
37477;SDS011;23334;54.316;10.182;2023-02-28T07:37:20;11.30;;;6.33;;
37477;SDS011;23334;54.316;10.182;2023-02-28T07:39:47;10.37;;;5.80;;
37477;SDS011;23334;54.316;10.182;2023-02-28T07:42:12;6.80;;;5.97;;
37477;SDS011;23334;54.316;10.182;2023-02-28T07:44:38;8.40;;;5.83;;
37477;SDS011;23334;54.316;10.182;2023-02-28T07:47:06;9.80;;;6.87;;
37477;SDS011;23334;54.316;10.182;2023-02-28T07:49:33;10.93;;;6.43;;
37477;SDS011;23334;54.316;10.182;2023-02-28T07:52:00;7.77;;;5.73;;
37477;SDS011;23334;54.316;10.182;2023-02-28T07:54:25;10.47;;;6.23;;
37477;SDS011;23334;54.316;10.182;2023-02-28T07:56:51;9.10;;;5.03;;
37477;SDS011;23334;54.316;10.182;2023-02-28T07:59:17;5.70;;;4.73;;
37477;SDS011;23334;54.316;10.182;2023-02-28T08:01:43;5.60;;;5.03;;
37477;SDS011;23334;54.316;10.182;2023-02-28T08:04:09;4.93;;;4.40;;
37477;SDS011;23334;54.316;10.182;2023-02-28T08:06:35;4.20;;;3.80;;
37477;SDS011;23334;54.316;10.182;2023-02-28T08:09:00;6.50;;;4.40;;
37477;SDS011;23334;54.316;10.182;2023-02-28T08:11:26;7.10;;;5.20;;
37477;SDS011;23334;54.316;10.182;2023-02-28T08:13:51;7.40;;;4.60;;
37477;SDS011;23334;54.316;10.182;2023-02-28T08:16:17;4.70;;;4.13;;
37477;SDS011;23334;54.316;10.182;2023-02-28T08:18:46;5.20;;;4.57;;
37477;SDS011;23334;54.316;10.182;2023-02-28T08:21:21;6.70;;;4.37;;
37477;SDS011;23334;54.316;10.182;2023-02-28T08:23:47;7.00;;;4.57;;
37477;SDS011;23334;54.316;10.182;2023-02-28T08:26:13;4.17;;;3.77;;
37477;SDS011;23334;54.316;10.182;2023-02-28T08:28:40;8.60;;;4.20;;
37477;SDS011;23334;54.316;10.182;2023-02-28T08:31:09;8.23;;;4.13;;
37477;SDS011;23334;54.316;10.182;2023-02-28T08:33:36;5.90;;;4.00;;
37477;SDS011;23334;54.316;10.182;2023-02-28T08:36:02;5.27;;;3.20;;
37477;SDS011;23334;54.316;10.182;2023-02-28T08:38:28;5.73;;;3.70;;
37477;SDS011;23334;54.316;10.182;2023-02-28T08:41:00;3.53;;;3.20;;
37477;SDS011;23334;54.316;10.182;2023-02-28T08:43:27;6.23;;;3.90;;
37477;SDS011;23334;54.316;10.182;2023-02-28T08:45:53;7.03;;;4.10;;
37477;SDS011;23334;54.316;10.182;2023-02-28T08:48:21;4.90;;;3.87;;
37477;SDS011;23334;54.316;10.182;2023-02-28T08:50:54;9.53;;;4.33;;
37477;SDS011;23334;54.316;10.182;2023-02-28T08:53:23;4.97;;;3.73;;
37477;SDS011;23334;54.316;10.182;2023-02-28T08:55:56;5.30;;;3.37;;
37477;SDS011;23334;54.316;10.182;2023-02-28T08:58:27;10.33;;;3.20;;
37477;SDS011;23334;54.316;10.182;2023-02-28T09:00:53;6.43;;;2.87;;
37477;SDS011;23334;54.316;10.182;2023-02-28T09:03:19;12.67;;;3.27;;
37477;SDS011;23334;54.316;10.182;2023-02-28T09:05:52;17.97;;;3.97;;
37477;SDS011;23334;54.316;10.182;2023-02-28T09:08:22;12.70;;;3.50;;
37477;SDS011;23334;54.316;10.182;2023-02-28T09:10:49;11.20;;;3.30;;
37477;SDS011;23334;54.316;10.182;2023-02-28T09:13:14;8.57;;;3.17;;
37477;SDS011;23334;54.316;10.182;2023-02-28T09:15:40;13.93;;;3.77;;
37477;SDS011;23334;54.316;10.182;2023-02-28T09:18:06;11.60;;;3.40;;
37477;SDS011;23334;54.316;10.182;2023-02-28T09:20:32;12.23;;;3.83;;
37477;SDS011;23334;54.316;10.182;2023-02-28T09:22:58;20.43;;;4.23;;
37477;SDS011;23334;54.316;10.182;2023-02-28T09:25:24;10.53;;;3.40;;
37477;SDS011;23334;54.316;10.182;2023-02-28T09:27:50;7.47;;;3.97;;
37477;SDS011;23334;54.316;10.182;2023-02-28T09:30:16;15.57;;;4.77;;
37477;SDS011;23334;54.316;10.182;2023-02-28T09:32:42;12.63;;;3.60;;
37477;SDS011;23334;54.316;10.182;2023-02-28T09:35:18;13.83;;;4.63;;
37477;SDS011;23334;54.316;10.182;2023-02-28T09:37:45;18.10;;;4.40;;
37477;SDS011;23334;54.316;10.182;2023-02-28T09:40:12;20.20;;;3.90;;
37477;SDS011;23334;54.316;10.182;2023-02-28T09:42:39;6.30;;;2.60;;
37477;SDS011;23334;54.316;10.182;2023-02-28T09:45:51;21.83;;;4.17;;
37477;SDS011;23334;54.316;10.182;2023-02-28T09:47:54;7.97;;;2.50;;
37477;SDS011;23334;54.316;10.182;2023-02-28T09:52:51;9.50;;;2.07;;
37477;SDS011;23334;54.316;10.182;2023-02-28T09:55:20;7.97;;;2.20;;
37477;SDS011;23334;54.316;10.182;2023-02-28T09:57:53;4.57;;;1.07;;
37477;SDS011;23334;54.316;10.182;2023-02-28T10:00:27;8.37;;;1.60;;
37477;SDS011;23334;54.316;10.182;2023-02-28T10:03:02;8.67;;;1.70;;
37477;SDS011;23334;54.316;10.182;2023-02-28T10:08:05;11.43;;;1.70;;
37477;SDS011;23334;54.316;10.182;2023-02-28T10:10:50;5.23;;;1.23;;
37477;SDS011;23334;54.316;10.182;2023-02-28T10:19:12;4.70;;;1.30;;
37477;SDS011;23334;54.316;10.182;2023-02-28T10:27:13;7.30;;;2.40;;
37477;SDS011;23334;54.316;10.182;2023-02-28T10:29:47;10.50;;;2.87;;
37477;SDS011;23334;54.316;10.182;2023-02-28T10:32:19;8.70;;;2.17;;
37477;SDS011;23334;54.316;10.182;2023-02-28T10:35:00;11.30;;;2.70;;
37477;SDS011;23334;54.316;10.182;2023-02-28T10:37:39;4.53;;;1.90;;
37477;SDS011;23334;54.316;10.182;2023-02-28T10:40:07;4.77;;;2.23;;
37477;SDS011;23334;54.316;10.182;2023-02-28T10:43:05;11.60;;;2.53;;
37477;SDS011;23334;54.316;10.182;2023-02-28T10:45:37;6.93;;;2.30;;
37477;SDS011;23334;54.316;10.182;2023-02-28T10:53:14;6.67;;;2.90;;
37477;SDS011;23334;54.316;10.182;2023-02-28T10:55:40;3.23;;;1.87;;
37477;SDS011;23334;54.316;10.182;2023-02-28T10:58:23;3.70;;;1.90;;
37477;SDS011;23334;54.316;10.182;2023-02-28T11:00:50;6.83;;;2.67;;
37477;SDS011;23334;54.316;10.182;2023-02-28T11:03:32;7.27;;;2.57;;
37477;SDS011;23334;54.316;10.182;2023-02-28T11:06:04;3.83;;;2.00;;
37477;SDS011;23334;54.316;10.182;2023-02-28T11:08:32;5.17;;;2.43;;
37477;SDS011;23334;54.316;10.182;2023-02-28T11:11:00;2.37;;;2.17;;
37477;SDS011;23334;54.316;10.182;2023-02-28T11:13:33;3.93;;;2.70;;
37477;SDS011;23334;54.316;10.182;2023-02-28T11:16:03;4.20;;;2.03;;
37477;SDS011;23334;54.316;10.182;2023-02-28T11:18:34;4.33;;;2.43;;
37477;SDS011;23334;54.316;10.182;2023-02-28T11:21:27;2.43;;;2.33;;
37477;SDS011;23334;54.316;10.182;2023-02-28T11:24:18;2.50;;;2.30;;
37477;SDS011;23334;54.316;10.182;2023-02-28T11:26:49;2.00;;;1.80;;
37477;SDS011;23334;54.316;10.182;2023-02-28T11:29:23;4.27;;;2.27;;
37477;SDS011;23334;54.316;10.182;2023-02-28T11:32:11;5.47;;;1.77;;
37477;SDS011;23334;54.316;10.182;2023-02-28T11:34:41;3.17;;;2.30;;
37477;SDS011;23334;54.316;10.182;2023-02-28T11:37:18;2.07;;;1.90;;
37477;SDS011;23334;54.316;10.182;2023-02-28T11:39:45;2.00;;;1.90;;
37477;SDS011;23334;54.316;10.182;2023-02-28T11:44:56;2.20;;;1.73;;
37477;SDS011;23334;54.316;10.182;2023-02-28T11:47:53;4.33;;;1.97;;
37477;SDS011;23334;54.316;10.182;2023-02-28T11:50:51;4.70;;;2.30;;
37477;SDS011;23334;54.316;10.182;2023-02-28T11:53:34;3.50;;;2.00;;
37477;SDS011;23334;54.316;10.182;2023-02-28T12:02:08;5.33;;;1.77;;
37477;SDS011;23334;54.316;10.182;2023-02-28T12:10:57;1.70;;;1.47;;
37477;SDS011;23334;54.316;10.182;2023-02-28T12:16:27;1.70;;;1.60;;
37477;SDS011;23334;54.316;10.182;2023-02-28T12:19:15;1.80;;;1.70;;
37477;SDS011;23334;54.316;10.182;2023-02-28T12:22:11;2.03;;;1.57;;
37477;SDS011;23334;54.316;10.182;2023-02-28T12:27:39;1.73;;;1.63;;
37477;SDS011;23334;54.316;10.182;2023-02-28T12:33:04;5.60;;;1.80;;
37477;SDS011;23334;54.316;10.182;2023-02-28T12:35:35;4.20;;;1.80;;
37477;SDS011;23334;54.316;10.182;2023-02-28T12:38:10;1.60;;;1.50;;
37477;SDS011;23334;54.316;10.182;2023-02-28T12:40:45;1.90;;;1.77;;
37477;SDS011;23334;54.316;10.182;2023-02-28T12:43:25;4.53;;;1.70;;
37477;SDS011;23334;54.316;10.182;2023-02-28T12:48:43;3.67;;;1.30;;
37477;SDS011;23334;54.316;10.182;2023-02-28T12:51:13;2.30;;;1.37;;
37477;SDS011;23334;54.316;10.182;2023-02-28T12:53:49;1.80;;;1.70;;
37477;SDS011;23334;54.316;10.182;2023-02-28T12:56:40;3.63;;;2.30;;
37477;SDS011;23334;54.316;10.182;2023-02-28T12:59:16;3.87;;;1.20;;
37477;SDS011;23334;54.316;10.182;2023-02-28T13:04:46;2.00;;;1.80;;
37477;SDS011;23334;54.316;10.182;2023-02-28T13:10:06;1.93;;;1.67;;
37477;SDS011;23334;54.316;10.182;2023-02-28T13:12:33;1.90;;;1.57;;
37477;SDS011;23334;54.316;10.182;2023-02-28T13:15:18;3.83;;;1.33;;
37477;SDS011;23334;54.316;10.182;2023-02-28T13:17:48;1.83;;;1.57;;
37477;SDS011;23334;54.316;10.182;2023-02-28T13:20:17;1.47;;;1.30;;
37477;SDS011;23334;54.316;10.182;2023-02-28T13:22:49;1.70;;;1.60;;
37477;SDS011;23334;54.316;10.182;2023-02-28T13:27:47;1.50;;;1.40;;
37477;SDS011;23334;54.316;10.182;2023-02-28T13:33:22;1.47;;;1.30;;
37477;SDS011;23334;54.316;10.182;2023-02-28T13:35:50;2.03;;;1.40;;
37477;SDS011;23334;54.316;10.182;2023-02-28T13:38:42;1.97;;;1.87;;
37477;SDS011;23334;54.316;10.182;2023-02-28T13:46:31;4.90;;;1.70;;
37477;SDS011;23334;54.316;10.182;2023-02-28T14:03:14;2.50;;;1.97;;
37477;SDS011;23334;54.316;10.182;2023-02-28T14:06:08;2.43;;;1.50;;
37477;SDS011;23334;54.316;10.182;2023-02-28T14:08:52;2.20;;;1.40;;
37477;SDS011;23334;54.316;10.182;2023-02-28T14:11:26;2.50;;;1.50;;
37477;SDS011;23334;54.316;10.182;2023-02-28T14:13:59;1.63;;;1.53;;
37477;SDS011;23334;54.316;10.182;2023-02-28T14:16:26;2.90;;;1.60;;
37477;SDS011;23334;54.316;10.182;2023-02-28T14:19:13;3.63;;;1.50;;
37477;SDS011;23334;54.316;10.182;2023-02-28T14:24:59;1.70;;;1.37;;
37477;SDS011;23334;54.316;10.182;2023-02-28T14:36:31;2.27;;;1.70;;
37477;SDS011;23334;54.316;10.182;2023-02-28T14:39:10;2.13;;;1.63;;
37477;SDS011;23334;54.316;10.182;2023-02-28T14:41:37;3.23;;;1.70;;
37477;SDS011;23334;54.316;10.182;2023-02-28T14:46:50;4.73;;;2.10;;
37477;SDS011;23334;54.316;10.182;2023-02-28T14:49:20;3.90;;;1.33;;
37477;SDS011;23334;54.316;10.182;2023-02-28T14:52:01;2.40;;;1.50;;
37477;SDS011;23334;54.316;10.182;2023-02-28T14:54:44;2.10;;;1.77;;
37477;SDS011;23334;54.316;10.182;2023-02-28T14:57:20;1.30;;;1.20;;
37477;SDS011;23334;54.316;10.182;2023-02-28T14:59:56;1.43;;;1.27;;
37477;SDS011;23334;54.316;10.182;2023-02-28T15:02:36;3.70;;;1.57;;
37477;SDS011;23334;54.316;10.182;2023-02-28T15:05:13;1.90;;;1.63;;
37477;SDS011;23334;54.316;10.182;2023-02-28T15:07:48;2.27;;;1.53;;
37477;SDS011;23334;54.316;10.182;2023-02-28T15:10:37;1.40;;;1.30;;
37477;SDS011;23334;54.316;10.182;2023-02-28T15:13:05;4.63;;;1.23;;
37477;SDS011;23334;54.316;10.182;2023-02-28T15:18:25;1.83;;;1.50;;
37477;SDS011;23334;54.316;10.182;2023-02-28T15:21:07;1.83;;;1.73;;
37477;SDS011;23334;54.316;10.182;2023-02-28T15:23:37;2.17;;;1.97;;
37477;SDS011;23334;54.316;10.182;2023-02-28T15:26:05;2.47;;;1.40;;
37477;SDS011;23334;54.316;10.182;2023-02-28T15:28:31;2.30;;;1.40;;
37477;SDS011;23334;54.316;10.182;2023-02-28T15:30:58;1.60;;;1.47;;
37477;SDS011;23334;54.316;10.182;2023-02-28T15:33:32;1.40;;;1.30;;
37477;SDS011;23334;54.316;10.182;2023-02-28T15:36:05;1.50;;;1.40;;
37477;SDS011;23334;54.316;10.182;2023-02-28T15:38:39;3.13;;;1.33;;
37477;SDS011;23334;54.316;10.182;2023-02-28T15:41:04;1.57;;;1.30;;
37477;SDS011;23334;54.316;10.182;2023-02-28T15:43:37;2.53;;;1.50;;
37477;SDS011;23334;54.316;10.182;2023-02-28T15:46:05;2.17;;;1.50;;
37477;SDS011;23334;54.316;10.182;2023-02-28T15:48:43;2.30;;;1.20;;
37477;SDS011;23334;54.316;10.182;2023-02-28T15:51:17;1.60;;;1.50;;
37477;SDS011;23334;54.316;10.182;2023-02-28T15:53:54;1.43;;;1.33;;
37477;SDS011;23334;54.316;10.182;2023-02-28T15:56:24;4.10;;;1.60;;
37477;SDS011;23334;54.316;10.182;2023-02-28T15:58:55;2.07;;;1.77;;
37477;SDS011;23334;54.316;10.182;2023-02-28T16:01:28;1.70;;;1.60;;
37477;SDS011;23334;54.316;10.182;2023-02-28T16:03:56;1.87;;;1.50;;
37477;SDS011;23334;54.316;10.182;2023-02-28T16:06:34;1.80;;;1.70;;
37477;SDS011;23334;54.316;10.182;2023-02-28T16:09:06;2.20;;;1.80;;
37477;SDS011;23334;54.316;10.182;2023-02-28T16:11:37;7.97;;;1.90;;
37477;SDS011;23334;54.316;10.182;2023-02-28T16:14:06;2.77;;;2.20;;
37477;SDS011;23334;54.316;10.182;2023-02-28T16:16:33;10.80;;;1.90;;
37477;SDS011;23334;54.316;10.182;2023-02-28T16:19:07;7.13;;;2.80;;
37477;SDS011;23334;54.316;10.182;2023-02-28T16:21:33;9.90;;;2.87;;
37477;SDS011;23334;54.316;10.182;2023-02-28T16:23:58;3.90;;;2.40;;
37477;SDS011;23334;54.316;10.182;2023-02-28T16:26:24;2.93;;;2.00;;
37477;SDS011;23334;54.316;10.182;2023-02-28T16:28:52;5.10;;;2.10;;
37477;SDS011;23334;54.316;10.182;2023-02-28T16:31:17;2.63;;;1.80;;
37477;SDS011;23334;54.316;10.182;2023-02-28T16:33:44;5.03;;;2.57;;
37477;SDS011;23334;54.316;10.182;2023-02-28T16:36:14;4.83;;;3.10;;
37477;SDS011;23334;54.316;10.182;2023-02-28T16:38:45;9.50;;;4.80;;
37477;SDS011;23334;54.316;10.182;2023-02-28T16:41:17;10.53;;;6.20;;
37477;SDS011;23334;54.316;10.182;2023-02-28T16:43:49;56.90;;;25.23;;
37477;SDS011;23334;54.316;10.182;2023-02-28T16:46:17;36.73;;;16.03;;
37477;SDS011;23334;54.316;10.182;2023-02-28T16:48:44;35.43;;;16.70;;
37477;SDS011;23334;54.316;10.182;2023-02-28T16:51:17;29.77;;;14.17;;
37477;SDS011;23334;54.316;10.182;2023-02-28T16:53:43;13.73;;;7.30;;